createdAt,value
2019-03-26T00:00:32.454Z,33.2
2019-03-26T00:01:32.439Z,33.39
2019-03-26T00:02:32.423Z,33.96
2019-03-26T00:03:32.400Z,34.25
2019-03-26T00:04:32.388Z,34.15
2019-03-26T00:05:32.364Z,34.15
2019-03-26T00:06:32.346Z,34.06
2019-03-26T00:07:32.332Z,33.68
2019-03-26T00:08:32.310Z,33.39
2019-03-26T00:09:32.295Z,33.87
2019-03-26T00:10:32.273Z,33.96
2019-03-26T00:11:32.030Z,34.34
2019-03-26T00:12:32.240Z,34.34
2019-03-26T00:13:32.222Z,34.34
2019-03-26T00:14:32.202Z,34.25
2019-03-26T00:15:32.184Z,34.06
2019-03-26T00:16:32.166Z,34.15
2019-03-26T00:17:32.149Z,33.96
2019-03-26T00:18:32.131Z,34.15
2019-03-26T00:19:32.264Z,34.34
2019-03-26T00:20:32.102Z,34.34
2019-03-26T00:21:32.077Z,34.34
2019-03-26T00:22:32.059Z,34.63
2019-03-26T00:23:32.044Z,34.06
2019-03-26T00:24:32.027Z,34.06
2019-03-26T00:25:32.004Z,33.3
2019-03-26T00:26:31.987Z,33.11
2019-03-26T00:27:31.971Z,33.01
2019-03-26T00:28:31.955Z,33.01
2019-03-26T00:29:31.934Z,33.11
2019-03-26T00:30:31.917Z,33.2
2019-03-26T00:31:31.898Z,33.11
2019-03-26T00:32:31.882Z,33.01
2019-03-26T00:33:38.962Z,32.92
2019-03-26T00:34:31.845Z,33.01
2019-03-26T00:35:31.827Z,32.73
2019-03-26T00:36:31.816Z,32.82
2019-03-26T00:37:31.794Z,33.01
2019-03-26T00:38:31.887Z,33.01
2019-03-26T00:39:31.755Z,32.82
2019-03-26T00:40:31.735Z,32.35
2019-03-26T00:41:31.472Z,31.98
2019-03-26T00:42:31.705Z,31.41
2019-03-26T00:43:31.686Z,31.12
2019-03-26T00:44:31.666Z,31.03
2019-03-26T00:45:31.651Z,31.5
2019-03-26T00:46:31.385Z,32.54
2019-03-26T00:47:31.612Z,32.45
2019-03-26T00:48:31.595Z,32.45
2019-03-26T00:49:31.581Z,32.26
2019-03-26T00:50:31.561Z,32.07
2019-03-26T00:51:31.543Z,31.98
2019-03-26T00:52:31.529Z,31.69
2019-03-26T00:53:31.507Z,31.69
2019-03-26T00:54:31.491Z,31.41
2019-03-26T00:55:31.567Z,31.22
2019-03-26T00:56:31.460Z,31.03
2019-03-26T00:57:31.189Z,30.27
2019-03-26T00:58:31.416Z,30.18
2019-03-26T00:59:31.151Z,29.42
2019-03-26T01:00:31.383Z,28.95
2019-03-26T01:01:31.365Z,28.85
2019-03-26T01:02:31.348Z,28.85
2019-03-26T01:03:31.331Z,28.95
2019-03-26T01:04:35.669Z,28.95
2019-03-26T01:05:31.291Z,29.61
2019-03-26T01:06:31.277Z,29.61
2019-03-26T01:07:31.256Z,29.61
2019-03-26T01:08:31.240Z,29.14
2019-03-26T01:09:31.222Z,28.95
2019-03-26T01:10:31.205Z,28.66
2019-03-26T01:11:31.190Z,28.66
2019-03-26T01:12:33.636Z,28.19
2019-03-26T01:13:31.154Z,28.76
2019-03-26T01:14:31.132Z,28.76
2019-03-26T01:15:31.115Z,29.8
2019-03-26T01:16:31.101Z,29.99
2019-03-26T01:17:31.083Z,29.99
2019-03-26T01:18:31.063Z,29.99
2019-03-26T01:19:31.045Z,29.71
2019-03-26T01:20:31.025Z,29.04
2019-03-26T01:21:31.011Z,29.04
2019-03-26T01:22:30.991Z,29.14
2019-03-26T01:23:30.976Z,29.71
2019-03-26T01:24:30.711Z,29.52
2019-03-26T01:25:31.189Z,29.04
2019-03-26T01:26:30.673Z,29.9
2019-03-26T01:27:30.914Z,29.61
2019-03-26T01:28:30.884Z,29.61
2019-03-26T01:29:30.870Z,29.14
2019-03-26T01:30:30.850Z,29.14
2019-03-26T01:31:30.833Z,28.85
2019-03-26T01:32:30.813Z,29.04
2019-03-26T01:33:30.797Z,29.14
2019-03-26T01:34:30.784Z,29.04
2019-03-26T01:35:30.759Z,29.14
2019-03-26T01:36:30.748Z,28.95
2019-03-26T01:37:30.727Z,29.23
2019-03-26T01:38:30.459Z,28.85
2019-03-26T01:39:30.689Z,28.66
2019-03-26T01:40:30.793Z,28.76
2019-03-26T01:41:30.675Z,28.57
2019-03-26T01:42:30.641Z,28.38
2019-03-26T01:43:30.622Z,28.38
2019-03-26T01:44:30.603Z,28.38
2019-03-26T01:45:30.587Z,27.72
2019-03-26T01:46:30.569Z,27.44
2019-03-26T01:47:30.549Z,28.19
2019-03-26T01:48:30.535Z,28.19
2019-03-26T01:49:30.512Z,28.85
2019-03-26T01:50:30.495Z,28.85
2019-03-26T01:51:30.231Z,28.95
2019-03-26T01:52:30.462Z,29.33
2019-03-26T01:53:30.444Z,29.23
2019-03-26T01:54:30.427Z,29.14
2019-03-26T01:55:30.407Z,29.14
2019-03-26T01:56:30.393Z,29.23
2019-03-26T01:57:30.371Z,29.9
2019-03-26T01:58:30.354Z,30.08
2019-03-26T01:59:30.338Z,30.46
2019-03-26T02:00:30.330Z,30.27
2019-03-26T02:01:30.304Z,30.08
2019-03-26T02:02:30.290Z,29.99
2019-03-26T02:03:30.268Z,29.71
2019-03-26T02:04:30.249Z,29.61
2019-03-26T02:05:30.231Z,29.23
2019-03-26T02:06:30.222Z,29.14
2019-03-26T02:07:30.202Z,28.66
2019-03-26T02:08:30.181Z,28.57
2019-03-26T02:09:30.163Z,29.14
2019-03-26T02:10:30.148Z,28.95
2019-03-26T02:11:30.125Z,28.85
2019-03-26T02:12:30.112Z,28.85
2019-03-26T02:13:30.095Z,29.14
2019-03-26T02:14:30.078Z,29.33
2019-03-26T02:15:30.072Z,29.14
2019-03-26T02:16:30.039Z,29.33
2019-03-26T02:17:30.021Z,29.23
2019-03-26T02:18:30.005Z,29.99
2019-03-26T02:19:29.987Z,30.27
2019-03-26T02:20:29.982Z,30.36
2019-03-26T02:21:29.955Z,30.74
2019-03-26T02:22:29.938Z,31.12
2019-03-26T02:23:29.914Z,31.03
2019-03-26T02:24:29.903Z,30.46
2019-03-26T02:25:29.636Z,29.99
2019-03-26T02:26:29.863Z,29.52
2019-03-26T02:27:29.848Z,29.04
2019-03-26T02:28:29.829Z,28.76
2019-03-26T02:29:29.565Z,28.66
2019-03-26T02:30:30.142Z,28.57
2019-03-26T02:31:29.777Z,28.19
2019-03-26T02:32:29.761Z,27.81
2019-03-26T02:33:29.758Z,27.62
2019-03-26T02:34:29.727Z,27.91
2019-03-26T02:35:29.740Z,27.72
2019-03-26T02:36:29.694Z,27.81
2019-03-26T02:37:29.678Z,27.62
2019-03-26T02:38:29.816Z,27.72
2019-03-26T02:39:29.643Z,27.62
2019-03-26T02:40:29.647Z,27.62
2019-03-26T02:41:29.358Z,27.91
2019-03-26T02:42:29.590Z,28.09
2019-03-26T02:43:29.584Z,28.09
2019-03-26T02:44:29.557Z,28.09
2019-03-26T02:45:29.536Z,28.66
2019-03-26T02:46:29.518Z,28.76
2019-03-26T02:47:29.519Z,29.14
2019-03-26T02:48:29.483Z,29.04
2019-03-26T02:49:29.464Z,30.18
2019-03-26T02:50:29.449Z,31.12
2019-03-26T02:51:29.447Z,30.93
2019-03-26T02:52:29.410Z,31.22
2019-03-26T02:53:29.439Z,31.6
2019-03-26T02:54:29.393Z,31.98
2019-03-26T02:55:29.377Z,32.54
2019-03-26T02:56:29.345Z,32.82
2019-03-26T02:57:29.339Z,33.01
2019-03-26T02:58:29.311Z,34.34
2019-03-26T02:59:29.305Z,34.15
2019-03-26T03:00:29.026Z,34.15
2019-03-26T03:01:29.257Z,33.96
2019-03-26T03:02:29.234Z,33.96
2019-03-26T03:03:29.229Z,33.77
2019-03-26T03:04:29.204Z,33.77
2019-03-26T03:05:38.035Z,33.77
2019-03-26T03:06:29.167Z,33.2
2019-03-26T03:07:28.906Z,33.3
2019-03-26T03:08:29.145Z,33.87
2019-03-26T03:09:29.118Z,33.87
2019-03-26T03:10:29.100Z,33.98
2019-03-26T03:11:29.080Z,33.58
2019-03-26T03:12:29.065Z,33.6
2019-03-26T03:13:29.057Z,33.58
2019-03-26T03:14:29.036Z,33.39
2019-03-26T03:15:28.776Z,33.2
2019-03-26T03:16:28.997Z,33.77
2019-03-26T03:17:28.764Z,34.25
2019-03-26T03:18:28.963Z,34.44
2019-03-26T03:19:28.948Z,34.25
2019-03-26T03:20:28.678Z,34.34
2019-03-26T03:21:28.914Z,34.25
2019-03-26T03:22:28.889Z,34.81
2019-03-26T03:23:28.874Z,35.19
2019-03-26T03:24:28.861Z,35.1
2019-03-26T03:25:28.849Z,35.47
2019-03-26T03:26:28.843Z,35.1
2019-03-26T03:27:28.818Z,35.3
2019-03-26T03:28:28.788Z,35.49
2019-03-26T03:29:28.769Z,35.38
2019-03-26T03:30:28.846Z,35.57
2019-03-26T03:31:28.750Z,35.68
2019-03-26T03:32:28.735Z,35.96
2019-03-26T03:33:28.913Z,36.82
2019-03-26T03:34:28.682Z,37.08
2019-03-26T03:35:28.665Z,37.08
2019-03-26T03:36:28.906Z,37.18
2019-03-26T03:37:28.636Z,37.29
2019-03-26T03:38:28.617Z,37.46
2019-03-26T03:39:28.601Z,37.18
2019-03-26T03:40:28.603Z,37.67
2019-03-26T03:41:28.577Z,37.65
2019-03-26T03:42:28.548Z,37.55
2019-03-26T03:43:28.531Z,37.84
2019-03-26T03:44:28.511Z,38.03
2019-03-26T03:45:28.498Z,38.33
2019-03-26T03:46:28.477Z,38.41
2019-03-26T03:47:28.464Z,38.9
2019-03-26T03:48:28.444Z,39.09
2019-03-26T03:49:28.181Z,39.65
2019-03-26T03:50:28.413Z,40.22
2019-03-26T03:51:28.390Z,40.41
2019-03-26T03:52:28.374Z,41.08
2019-03-26T03:53:28.369Z,41.08
2019-03-26T03:54:28.350Z,41.91
2019-03-26T03:55:28.329Z,42.57
2019-03-26T03:56:28.307Z,43.42
2019-03-26T03:57:28.039Z,44.77
2019-03-26T03:58:28.354Z,45.22
2019-03-26T03:59:28.032Z,45.12
2019-03-26T04:00:28.234Z,45.5
2019-03-26T04:01:28.217Z,45.03
2019-03-26T04:02:28.200Z,45.31
2019-03-26T04:03:28.203Z,45.12
2019-03-26T04:04:28.169Z,45.41
2019-03-26T04:05:28.154Z,44.84
2019-03-26T04:06:28.144Z,44.37
2019-03-26T04:07:28.118Z,44.37
2019-03-26T04:08:28.100Z,44.18
2019-03-26T04:09:27.833Z,43.99
2019-03-26T04:10:28.064Z,44.09
2019-03-26T04:11:27.802Z,43.9
2019-03-26T04:12:28.027Z,44.18
2019-03-26T04:13:28.013Z,44.09
2019-03-26T04:14:28.026Z,44.56
2019-03-26T04:15:27.974Z,44.65
2019-03-26T04:16:27.961Z,44.65
2019-03-26T04:17:27.939Z,44.18
2019-03-26T04:18:27.683Z,43.8
2019-03-26T04:19:27.921Z,43.04
2019-03-26T04:20:27.885Z,42.29
2019-03-26T04:21:27.874Z,41.72
2019-03-26T04:22:27.854Z,41.44
2019-03-26T04:23:27.858Z,40.49
2019-03-26T04:24:27.815Z,40.49
2019-03-26T04:25:27.590Z,40.49
2019-03-26T04:26:27.801Z,40.58
2019-03-26T04:27:27.762Z,40.2
2019-03-26T04:28:27.785Z,39.64
2019-03-26T04:29:27.763Z,39.26
2019-03-26T04:30:27.714Z,38.79
2019-03-26T04:31:27.700Z,38.22
2019-03-26T04:32:27.686Z,37.93
2019-03-26T04:33:27.669Z,37.65
2019-03-26T04:34:27.658Z,37.46
2019-03-26T04:35:27.630Z,37.08
2019-03-26T04:36:28.951Z,37.18
2019-03-26T04:37:27.600Z,37.08
2019-03-26T04:38:27.584Z,36.71
2019-03-26T04:39:27.559Z,36.61
2019-03-26T04:40:27.543Z,36.61
2019-03-26T04:41:27.527Z,36.52
2019-03-26T04:42:27.501Z,36.14
2019-03-26T04:43:27.500Z,35.95
2019-03-26T04:44:27.467Z,36.33
2019-03-26T04:45:27.449Z,36.61
2019-03-26T04:46:27.185Z,37.08
2019-03-26T04:47:27.418Z,36.8
2019-03-26T04:48:27.394Z,36.99
2019-03-26T04:49:27.378Z,36.8
2019-03-26T04:50:27.361Z,36.8
2019-03-26T04:51:27.343Z,36.42
2019-03-26T04:52:27.328Z,36.8
2019-03-26T04:53:27.321Z,36.52
2019-03-26T04:54:27.293Z,36.52
2019-03-26T04:55:27.282Z,36.33
2019-03-26T04:56:27.256Z,36.04
2019-03-26T04:57:27.237Z,36.04
2019-03-26T04:58:27.221Z,35.38
2019-03-26T04:59:27.203Z,35.1
2019-03-26T05:00:27.184Z,35.38
2019-03-26T05:01:27.168Z,35.47
2019-03-26T05:02:27.164Z,35.38
2019-03-26T05:03:27.134Z,35.19
2019-03-26T05:04:27.115Z,35
2019-03-26T05:05:27.107Z,34.44
2019-03-26T05:06:39.840Z,34.06
2019-03-26T05:07:27.062Z,33.96
2019-03-26T05:08:27.044Z,34.06
2019-03-26T05:09:27.036Z,33.3
2019-03-26T05:10:27.034Z,32.92
2019-03-26T05:11:26.993Z,33.2
2019-03-26T05:12:26.978Z,33.11
2019-03-26T05:13:26.956Z,33.39
2019-03-26T05:14:26.941Z,33.2
2019-03-26T05:15:26.929Z,33.2
2019-03-26T05:16:26.904Z,32.92
2019-03-26T05:17:26.887Z,32.82
2019-03-26T05:18:26.874Z,32.54
2019-03-26T05:19:26.856Z,32.64
2019-03-26T05:20:26.836Z,32.26
2019-03-26T05:21:26.815Z,32.45
2019-03-26T05:22:27.021Z,32.17
2019-03-26T05:23:26.782Z,31.98
2019-03-26T05:24:26.763Z,31.69
2019-03-26T05:25:26.746Z,31.69
2019-03-26T05:26:26.734Z,31.31
2019-03-26T05:27:26.713Z,31.03
2019-03-26T05:28:26.699Z,31.03
2019-03-26T05:29:26.682Z,31.12
2019-03-26T05:30:26.667Z,31.22
2019-03-26T05:31:26.401Z,30.93
2019-03-26T05:32:26.626Z,31.5
2019-03-26T05:33:26.608Z,31.69
2019-03-26T05:34:26.594Z,31.5
2019-03-26T05:35:26.573Z,31.41
2019-03-26T05:36:26.562Z,31.6
2019-03-26T05:37:26.541Z,31.98
2019-03-26T05:38:26.521Z,32.65
2019-03-26T05:39:26.502Z,32.75
2019-03-26T05:40:26.484Z,33.3
2019-03-26T05:41:26.471Z,34.17
2019-03-26T05:42:26.205Z,34.92
2019-03-26T05:43:26.434Z,35.68
2019-03-26T05:44:26.417Z,35.49
2019-03-26T05:45:26.399Z,35.87
2019-03-26T05:46:26.383Z,36.44
2019-03-26T05:47:26.371Z,37.01
2019-03-26T05:48:26.400Z,37.1
2019-03-26T05:49:26.352Z,37.67
2019-03-26T05:50:26.311Z,37.95
2019-03-26T05:51:26.296Z,38.71
2019-03-26T05:52:26.279Z,39.09
2019-03-26T05:53:26.270Z,39.75
2019-03-26T05:54:26.251Z,40.22
2019-03-26T05:55:26.224Z,40.79
2019-03-26T05:56:26.208Z,41.55
2019-03-26T05:57:26.194Z,41.83
2019-03-26T05:58:26.173Z,42.21
2019-03-26T05:59:26.165Z,41.83
2019-03-26T06:00:26.146Z,42.3
2019-03-26T06:01:26.120Z,42.88
2019-03-26T06:02:26.105Z,43.26
2019-03-26T06:03:26.086Z,43.26
2019-03-26T06:04:26.074Z,43.54
2019-03-26T06:05:26.053Z,44.1
2019-03-26T06:06:26.035Z,45.05
2019-03-26T06:07:26.021Z,45.81
2019-03-26T06:08:26.001Z,47.32
2019-03-26T06:09:25.991Z,48.65
2019-03-26T06:10:25.967Z,49.41
2019-03-26T06:11:25.961Z,49.6
2019-03-26T06:12:25.934Z,49.79
2019-03-26T06:13:25.923Z,50.35
2019-03-26T06:14:25.897Z,50.45
2019-03-26T06:15:25.641Z,50.82
2019-03-26T06:16:37.789Z,51.2
2019-03-26T06:17:25.848Z,50.92
2019-03-26T06:18:25.830Z,50.92
2019-03-26T06:19:25.840Z,51.39
2019-03-26T06:20:25.803Z,52.25
2019-03-26T06:21:25.778Z,51.77
2019-03-26T06:22:25.811Z,51.11
2019-03-26T06:23:25.748Z,50.82
2019-03-26T06:24:25.732Z,50.92
2019-03-26T06:25:25.715Z,50.63
2019-03-26T06:26:25.691Z,50.63
2019-03-26T06:27:25.680Z,51.01
2019-03-26T06:28:25.664Z,52.34
2019-03-26T06:29:25.644Z,52.81
2019-03-26T06:30:25.629Z,52.91
2019-03-26T06:31:25.611Z,53.85
2019-03-26T06:32:25.589Z,54.14
2019-03-26T06:33:25.572Z,54.52
2019-03-26T06:34:25.553Z,55.08
2019-03-26T06:35:25.537Z,56.88
2019-03-26T06:36:25.521Z,55.84
2019-03-26T06:37:25.565Z,56.03
2019-03-26T06:38:25.485Z,55.94
2019-03-26T06:39:25.469Z,54.71
2019-03-26T06:40:25.459Z,54.71
2019-03-26T06:41:25.436Z,54.99
2019-03-26T06:42:25.420Z,54.52
2019-03-26T06:43:25.411Z,55.56
2019-03-26T06:44:25.386Z,56.32
2019-03-26T06:45:25.367Z,55.56
2019-03-26T06:46:25.367Z,55.27
2019-03-26T06:47:25.333Z,57.07
2019-03-26T06:48:25.322Z,57.07
2019-03-26T06:49:25.298Z,57.45
2019-03-26T06:50:25.283Z,58.11
2019-03-26T06:51:25.268Z,58.4
2019-03-26T06:52:25.250Z,61.33
2019-03-26T06:53:24.988Z,63.13
2019-03-26T06:54:25.217Z,64.07
2019-03-26T06:55:25.199Z,63.98
2019-03-26T06:56:25.201Z,63.7
2019-03-26T06:57:37.820Z,62.37
2019-03-26T06:58:25.147Z,61.9
2019-03-26T06:59:25.130Z,61.43
2019-03-26T07:00:25.115Z,60.67
2019-03-26T07:01:25.099Z,61.15
2019-03-26T07:02:24.837Z,61.15
2019-03-26T07:03:25.062Z,61.43
2019-03-26T07:04:24.803Z,61.9
2019-03-26T07:05:25.027Z,63.23
2019-03-26T07:06:25.014Z,64.17
2019-03-26T07:07:33.856Z,64.26
2019-03-26T07:08:24.978Z,65.12
2019-03-26T07:09:24.961Z,68.15
2019-03-26T07:10:24.947Z,68.62
2019-03-26T07:11:24.927Z,69
2019-03-26T07:12:24.909Z,68.15
2019-03-26T07:13:24.903Z,66.73
2019-03-26T07:14:24.875Z,64.45
2019-03-26T07:15:24.863Z,64.11
2019-03-26T07:16:24.843Z,64.87
2019-03-26T07:17:24.830Z,66.95
2019-03-26T07:18:24.808Z,69.13
2019-03-26T07:19:24.795Z,71.69
2019-03-26T07:20:24.774Z,74.15
2019-03-26T07:21:24.758Z,75.76
2019-03-26T07:22:24.742Z,76.8
2019-03-26T07:23:24.753Z,77.37
2019-03-26T07:24:24.708Z,77.75
2019-03-26T07:25:24.693Z,78.59
2019-03-26T07:26:24.678Z,82.2
2019-03-26T07:27:24.660Z,83.62
2019-03-26T07:28:24.398Z,85.13
2019-03-26T07:29:24.382Z,85.42
2019-03-26T07:30:24.633Z,84.19
2019-03-26T07:31:24.603Z,83.62
2019-03-26T07:32:24.583Z,82.48
2019-03-26T07:33:24.556Z,84.38
2019-03-26T07:34:24.541Z,86.27
2019-03-26T07:35:24.527Z,88.82
2019-03-26T07:36:24.508Z,88.54
2019-03-26T07:37:24.491Z,87.21
2019-03-26T07:38:24.480Z,84
2019-03-26T07:39:24.458Z,82.1
2019-03-26T07:40:24.441Z,85.32
2019-03-26T07:41:24.425Z,90.53
2019-03-26T07:42:24.413Z,92.24
2019-03-26T07:43:24.391Z,90.91
2019-03-26T07:44:24.376Z,92.61
2019-03-26T07:45:24.360Z,92.99
2019-03-26T07:46:24.342Z,96.12
2019-03-26T07:47:24.326Z,96.31
2019-03-26T07:48:24.315Z,95.83
2019-03-26T07:49:24.059Z,94.79
2019-03-26T07:50:24.278Z,94.13
2019-03-26T07:51:24.264Z,93.27
2019-03-26T07:52:24.243Z,91.48
2019-03-26T07:53:24.233Z,93.51
2019-03-26T07:54:24.211Z,95.64
2019-03-26T07:55:24.198Z,98.54
2019-03-26T07:56:24.178Z,99.77
2019-03-26T07:57:24.162Z,99.99
2019-03-26T07:58:24.145Z,99.99
2019-03-26T07:59:24.229Z,99.99
2019-03-26T08:00:24.114Z,99.99
2019-03-26T08:01:24.103Z,99.99
2019-03-26T08:02:23.838Z,99.99
2019-03-26T08:03:24.067Z,99.99
2019-03-26T08:04:24.047Z,99.99
2019-03-26T08:05:32.008Z,99.99
2019-03-26T08:06:24.014Z,99.99
2019-03-26T08:07:24.002Z,99.99
2019-03-26T08:08:23.984Z,99.99
2019-03-26T08:09:24.189Z,99.99
2019-03-26T08:10:24.033Z,99.99
2019-03-26T08:11:23.940Z,99.99
2019-03-26T08:12:23.924Z,99.99
2019-03-26T08:13:23.949Z,99.99
2019-03-26T08:14:23.920Z,99.99
2019-03-26T08:15:23.893Z,99.99
2019-03-26T08:16:23.863Z,99.99
2019-03-26T08:17:23.856Z,99.99
2019-03-26T08:18:23.824Z,99.99
2019-03-26T08:19:23.817Z,99.99
2019-03-26T08:20:23.801Z,99.99
2019-03-26T08:21:23.780Z,99.99
2019-03-26T08:22:23.762Z,99.99
2019-03-26T08:23:23.754Z,99.99
2019-03-26T08:24:23.730Z,99.99
2019-03-26T08:25:23.714Z,99.99
2019-03-26T08:26:23.697Z,99.99
2019-03-26T08:27:23.687Z,99.99
2019-03-26T08:28:23.666Z,99.99
2019-03-26T08:29:23.653Z,99.99
2019-03-26T08:30:23.635Z,99.99
2019-03-26T08:31:23.377Z,99.99
2019-03-26T08:32:23.605Z,99.99
2019-03-26T08:33:25.913Z,99.99
2019-03-26T08:34:23.577Z,99.99
2019-03-26T08:35:23.559Z,99.99
2019-03-26T08:36:23.544Z,99.99
2019-03-26T08:37:23.525Z,99.99
2019-03-26T08:38:23.535Z,99.99
2019-03-26T08:39:23.498Z,99.99
2019-03-26T08:40:25.860Z,99.99
2019-03-26T08:41:23.467Z,99.99
2019-03-26T08:42:23.451Z,99.99
2019-03-26T08:43:23.437Z,99.99
2019-03-26T08:44:23.423Z,99.99
2019-03-26T08:45:23.403Z,99.99
2019-03-26T08:46:23.386Z,99.99
2019-03-26T08:47:23.132Z,99.99
2019-03-26T08:48:23.359Z,99.99
2019-03-26T08:49:23.341Z,99.99
2019-03-26T08:50:23.329Z,99.99
2019-03-26T08:51:23.319Z,99.99
2019-03-26T08:52:23.298Z,99.99
2019-03-26T08:53:23.033Z,99.99
2019-03-26T08:54:23.262Z,99.99
2019-03-26T08:55:23.001Z,99.99
2019-03-26T08:56:23.235Z,99.99
2019-03-26T08:57:23.243Z,99.99
2019-03-26T08:58:23.201Z,99.99
2019-03-26T08:59:23.191Z,99.99
2019-03-26T09:00:23.237Z,99.99
2019-03-26T09:01:23.159Z,99.99
2019-03-26T09:02:23.140Z,99.99
2019-03-26T09:03:23.133Z,99.99
2019-03-26T09:04:23.117Z,99.99
2019-03-26T09:05:23.097Z,99.99
2019-03-26T09:06:23.079Z,99.99
2019-03-26T09:07:23.097Z,99.99
2019-03-26T09:08:28.135Z,99.99
2019-03-26T09:09:23.031Z,99.99
2019-03-26T09:10:23.018Z,99.99
2019-03-26T09:11:23.002Z,99.99
2019-03-26T09:12:22.983Z,99.99
2019-03-26T09:13:22.971Z,99.99
2019-03-26T09:14:22.957Z,99.99
2019-03-26T09:15:22.938Z,99.99
2019-03-26T09:16:22.927Z,99.99
2019-03-26T09:17:22.915Z,99.99
2019-03-26T09:18:22.900Z,99.99
2019-03-26T09:19:22.879Z,99.99
2019-03-26T09:20:22.865Z,99.99
2019-03-26T09:21:22.849Z,99.99
2019-03-26T09:22:22.590Z,99.99
2019-03-26T09:23:22.819Z,99.99
2019-03-26T09:24:22.800Z,99.99
2019-03-26T09:25:22.787Z,99.99
2019-03-26T09:26:22.778Z,99.99
2019-03-26T09:27:22.508Z,99.99
2019-03-26T09:28:22.747Z,99.99
2019-03-26T09:29:22.727Z,99.99
2019-03-26T09:30:22.715Z,99.99
2019-03-26T09:31:22.691Z,99.99
2019-03-26T09:32:22.675Z,99.99
2019-03-26T09:33:22.661Z,99.99
2019-03-26T09:34:22.651Z,99.99
2019-03-26T09:35:22.634Z,99.99
2019-03-26T09:36:22.614Z,99.99
2019-03-26T09:37:22.599Z,99.99
2019-03-26T09:38:22.586Z,99.99
2019-03-26T09:39:22.577Z,99.99
2019-03-26T09:40:22.561Z,99.99
2019-03-26T09:41:22.299Z,99.99
2019-03-26T09:42:22.520Z,99.99
2019-03-26T09:43:22.507Z,99.99
2019-03-26T09:44:22.490Z,99.99
2019-03-26T09:45:22.474Z,99.99
2019-03-26T09:46:22.458Z,99.99
2019-03-26T09:47:22.443Z,99.99
2019-03-26T09:48:22.428Z,99.99
2019-03-26T09:49:22.411Z,99.99
2019-03-26T09:50:22.405Z,99.99
2019-03-26T09:51:22.389Z,99.99
2019-03-26T09:52:22.372Z,99.99
2019-03-26T09:53:22.356Z,99.99
2019-03-26T09:54:22.090Z,99.99
2019-03-26T09:55:22.318Z,99.99
2019-03-26T09:56:32.966Z,99.99
2019-03-26T09:57:22.288Z,99.99
2019-03-26T09:58:22.274Z,99.99
2019-03-26T09:59:22.256Z,99.99
2019-03-26T10:00:22.244Z,99.99
2019-03-26T10:01:22.225Z,99.99
2019-03-26T10:02:21.963Z,99.99
2019-03-26T10:03:22.195Z,99.99
2019-03-26T10:04:22.177Z,99.99
2019-03-26T10:05:21.920Z,99.99
2019-03-26T10:06:26.284Z,99.99
2019-03-26T10:07:24.296Z,99.99
2019-03-26T10:08:22.121Z,99.99
2019-03-26T10:09:22.101Z,99.99
2019-03-26T10:10:22.087Z,99.99
2019-03-26T10:11:22.070Z,99.99
2019-03-26T10:12:22.055Z,99.99
2019-03-26T10:13:22.042Z,99.99
2019-03-26T10:14:22.029Z,99.99
2019-03-26T10:15:22.013Z,99.99
2019-03-26T10:16:22.006Z,99.99
2019-03-26T10:17:21.982Z,99.99
2019-03-26T10:18:21.966Z,99.99
2019-03-26T10:19:21.951Z,99.99
2019-03-26T10:20:21.935Z,99.99
2019-03-26T10:21:21.924Z,99.99
2019-03-26T10:22:22.553Z,99.99
2019-03-26T10:23:21.891Z,99.99
2019-03-26T10:24:21.700Z,99.99
2019-03-26T10:25:21.856Z,99.99
2019-03-26T10:26:21.842Z,99.99
2019-03-26T10:27:21.826Z,99.99
2019-03-26T10:28:21.568Z,99.99
2019-03-26T10:29:32.506Z,99.99
2019-03-26T10:30:24.720Z,99.99
2019-03-26T10:31:21.767Z,99.99
2019-03-26T10:32:21.754Z,99.99
2019-03-26T10:33:21.737Z,99.99
2019-03-26T10:34:21.476Z,99.99
2019-03-26T10:35:21.706Z,99.99
2019-03-26T10:36:21.692Z,99.99
2019-03-26T10:37:21.676Z,99.99
2019-03-26T10:38:21.669Z,99.99
2019-03-26T10:39:21.647Z,99.99
2019-03-26T10:40:21.635Z,99.99
2019-03-26T10:41:21.369Z,99.99
2019-03-26T10:42:21.606Z,99.99
2019-03-26T10:43:21.584Z,99.99
2019-03-26T10:44:21.569Z,99.99
2019-03-26T10:45:21.557Z,99.99
2019-03-26T10:46:21.539Z,99.99
2019-03-26T10:47:21.570Z,99.99
2019-03-26T10:48:21.514Z,99.99
2019-03-26T10:49:21.498Z,99.99
2019-03-26T10:50:21.481Z,99.99
2019-03-26T10:51:21.473Z,99.99
2019-03-26T10:52:21.450Z,99.99
2019-03-26T10:53:21.439Z,99.99
2019-03-26T10:54:21.176Z,99.99
2019-03-26T10:55:21.405Z,99.99
2019-03-26T10:56:21.393Z,99.99
2019-03-26T10:57:24.340Z,99.99
2019-03-26T10:58:21.365Z,99.99
2019-03-26T10:59:21.347Z,99.99
2019-03-26T11:00:21.336Z,99.99
2019-03-26T11:01:21.072Z,99.99
2019-03-26T11:02:21.300Z,99.99
2019-03-26T11:03:21.303Z,99.99
2019-03-26T11:04:21.275Z,99.99
2019-03-26T11:05:21.258Z,99.99
2019-03-26T11:06:21.243Z,99.99
2019-03-26T11:07:20.983Z,99.99
2019-03-26T11:08:21.223Z,99.99
2019-03-26T11:09:29.077Z,99.99
2019-03-26T11:10:21.189Z,99.99
2019-03-26T11:11:21.171Z,99.99
2019-03-26T11:12:21.155Z,99.99
2019-03-26T11:13:21.145Z,99.99
2019-03-26T11:14:21.126Z,99.99
2019-03-26T11:15:20.866Z,99.99
2019-03-26T11:16:21.093Z,99.99
2019-03-26T11:17:21.086Z,99.99
2019-03-26T11:18:21.074Z,99.99
2019-03-26T11:19:21.056Z,99.99
2019-03-26T11:20:21.040Z,99.99
2019-03-26T11:21:21.025Z,99.99
2019-03-26T11:22:21.007Z,99.99
2019-03-26T11:23:20.992Z,99.99
2019-03-26T11:24:20.980Z,99.99
2019-03-26T11:25:20.966Z,99.99
2019-03-26T11:26:20.951Z,99.99
2019-03-26T11:27:20.941Z,99.99
2019-03-26T11:28:20.932Z,99.99
2019-03-26T11:29:20.906Z,99.99
2019-03-26T11:30:20.644Z,99.99
2019-03-26T11:31:20.873Z,99.99
2019-03-26T11:32:20.860Z,99.99
2019-03-26T11:33:20.847Z,99.99
2019-03-26T11:34:20.836Z,99.99
2019-03-26T11:35:20.819Z,99.99
2019-03-26T11:36:20.801Z,99.99
2019-03-26T11:37:20.787Z,99.99
2019-03-26T11:38:21.161Z,99.99
2019-03-26T11:39:34.381Z,99.99
2019-03-26T11:40:20.743Z,99.99
2019-03-26T11:41:20.726Z,99.99
2019-03-26T11:42:20.711Z,99.99
2019-03-26T11:43:20.695Z,99.99
2019-03-26T11:44:20.683Z,99.99
2019-03-26T11:45:20.666Z,99.99
2019-03-26T11:46:20.651Z,99.99
2019-03-26T11:47:20.637Z,99.99
2019-03-26T11:48:20.646Z,93.7
2019-03-26T11:49:20.607Z,89.43
2019-03-26T11:50:20.352Z,90
2019-03-26T11:51:20.580Z,88.1
2019-03-26T11:52:20.566Z,87.82
2019-03-26T11:53:20.306Z,90.29
2019-03-26T11:54:20.609Z,91.9
2019-03-26T11:55:21.895Z,93.23
2019-03-26T11:56:20.505Z,94.08
2019-03-26T11:57:20.497Z,90.48
2019-03-26T11:58:32.858Z,87.45
2019-03-26T11:59:20.463Z,88.2
2019-03-26T12:00:20.450Z,91.42
2019-03-26T12:01:20.436Z,94.98
2019-03-26T12:02:20.637Z,92.8
2019-03-26T12:03:20.476Z,93.46
2019-03-26T12:04:20.388Z,92.52
2019-03-26T12:05:20.132Z,95.26
2019-03-26T12:06:20.357Z,93.56
2019-03-26T12:07:20.353Z,92.9
2019-03-26T12:08:20.328Z,91.85
2019-03-26T12:09:20.313Z,91.76
2019-03-26T12:10:20.298Z,89.77
2019-03-26T12:11:20.286Z,89.77
2019-03-26T12:12:20.272Z,90.72
2019-03-26T12:13:20.011Z,93.65
2019-03-26T12:14:20.237Z,95.45
2019-03-26T12:15:20.224Z,95.74
2019-03-26T12:16:20.209Z,93.27
2019-03-26T12:17:20.215Z,92.66
2019-03-26T12:18:20.181Z,90.76
2019-03-26T12:19:20.164Z,90.19
2019-03-26T12:20:20.152Z,90.48
2019-03-26T12:21:20.139Z,88.2
2019-03-26T12:22:20.120Z,88.1
2019-03-26T12:23:20.106Z,89.62
2019-03-26T12:24:20.096Z,90.19
2019-03-26T12:25:20.154Z,91.05
2019-03-26T12:26:20.059Z,91.8
2019-03-26T12:27:20.051Z,93.27
2019-03-26T12:28:20.048Z,96.03
2019-03-26T12:29:20.017Z,96.26
2019-03-26T12:30:20.006Z,96.83
2019-03-26T12:31:19.986Z,98.73
2019-03-26T12:32:19.971Z,99.99
2019-03-26T12:33:19.957Z,98.63
2019-03-26T12:34:19.943Z,92.99
2019-03-26T12:35:19.929Z,96.97
2019-03-26T12:36:19.913Z,99.82
2019-03-26T12:37:19.901Z,99.26
2019-03-26T12:38:19.890Z,85.87
2019-03-26T12:39:19.624Z,86.72
2019-03-26T12:40:19.856Z,85.11
2019-03-26T12:41:19.844Z,86.35
2019-03-26T12:42:19.828Z,83.88
2019-03-26T12:43:19.813Z,80.18
2019-03-26T12:44:19.802Z,79.04
2019-03-26T12:45:19.785Z,78.85
2019-03-26T12:46:19.779Z,77.81
2019-03-26T12:47:19.769Z,76.76
2019-03-26T12:48:19.744Z,74.11
2019-03-26T12:49:19.730Z,74.49
2019-03-26T12:50:19.717Z,75.05
2019-03-26T12:51:19.699Z,75.05
2019-03-26T12:52:19.685Z,74.96
2019-03-26T12:53:19.429Z,77.05
2019-03-26T12:54:19.661Z,75.24